Time;durP1;ratioP1;P1;durP2;ratioP2;P2;SDS_P1;SDS_P2;PMS_P1;PMS_P2;Temp;Humidity;BMP_temperature;BMP_pressure;BME280_temperature;BME280_humidity;BME280_pressure;Samples;Min_cycle;Max_cycle;Signal;HPM_P1;HPM_P2
2024/03/29 00:01:01;;;;;;;10.07;6.22;;;;;;;;;;5036882;28;20043;-64
2024/03/29 00:03:27;;;;;;;10.63;5.90;;;;;;;;;;5042796;28;20021;-65
2024/03/29 00:05:53;;;;;;;15.40;6.63;;;;;;;;;;5039408;28;20030;-65
2024/03/29 00:08:19;;;;;;;9.90;6.40;;;;;;;;;;5047484;28;20404;-66
2024/03/29 00:10:47;;;;;;;9.68;5.80;;;;;;;;;;5034810;28;20026;-65
2024/03/29 00:13:13;;;;;;;8.77;5.85;;;;;;;;;;5044529;28;20021;-64
2024/03/29 00:15:39;;;;;;;11.45;5.47;;;;;;;;;;5041558;28;20029;-65
2024/03/29 00:18:05;;;;;;;11.63;5.50;;;;;;;;;;5036343;28;20029;-66
2024/03/29 00:20:31;;;;;;;11.95;6.55;;;;;;;;;;5047060;28;20017;-65
2024/03/29 00:22:57;;;;;;;15.05;7.28;;;;;;;;;;5035910;28;20503;-65
2024/03/29 00:25:23;;;;;;;15.60;7.80;;;;;;;;;;5043013;28;20025;-64
2024/03/29 00:27:49;;;;;;;12.68;6.25;;;;;;;;;;5043374;28;20488;-64
2024/03/29 00:30:15;;;;;;;20.05;8.27;;;;;;;;;;5035494;28;20109;-64
2024/03/29 00:32:41;;;;;;;15.38;7.70;;;;;;;;;;5032081;28;20488;-64
2024/03/29 00:35:07;;;;;;;16.38;8.65;;;;;;;;;;5043775;28;20046;-63
2024/03/29 00:37:34;;;;;;;18.33;10.30;;;;;;;;;;5040858;28;20047;-63
2024/03/29 00:40:00;;;;;;;20.08;10.35;;;;;;;;;;5037776;28;20492;-64
2024/03/29 00:42:26;;;;;;;20.05;10.77;;;;;;;;;;5046303;28;20033;-64
2024/03/29 00:44:52;;;;;;;21.85;12.63;;;;;;;;;;5035070;28;20024;-65
2024/03/29 00:47:18;;;;;;;19.00;11.88;;;;;;;;;;5043340;28;20026;-66
2024/03/29 00:49:44;;;;;;;17.75;12.35;;;;;;;;;;5040481;28;20039;-65
2024/03/29 00:52:10;;;;;;;22.88;13.52;;;;;;;;;;5040090;28;20021;-66
2024/03/29 00:54:36;;;;;;;21.10;13.70;;;;;;;;;;5032869;28;20036;-64
2024/03/29 00:57:02;;;;;;;22.42;15.63;;;;;;;;;;5038312;28;20546;-65
2024/03/29 00:59:28;;;;;;;23.10;15.02;;;;;;;;;;5041681;28;20060;-64
2024/03/29 01:01:54;;;;;;;26.20;16.83;;;;;;;;;;5042948;28;20530;-64
2024/03/29 01:04:20;;;;;;;26.05;17.65;;;;;;;;;;5034126;28;20017;-64
2024/03/29 01:06:46;;;;;;;27.17;18.55;;;;;;;;;;5046200;28;20029;-64
2024/03/29 01:09:12;;;;;;;29.90;20.10;;;;;;;;;;5037300;28;20100;-64
2024/03/29 01:11:38;;;;;;;30.70;20.73;;;;;;;;;;5039741;28;20021;-64
2024/03/29 01:14:05;;;;;;;30.38;20.73;;;;;;;;;;5044377;28;20078;-63
2024/03/29 01:16:31;;;;;;;31.88;21.75;;;;;;;;;;5032809;28;20091;-63
2024/03/29 01:19:00;;;;;;;34.28;23.40;;;;;;;;;;5045177;28;20033;-65
2024/03/29 01:21:26;;;;;;;67.82;23.95;;;;;;;;;;5038705;28;20659;-64
2024/03/29 01:23:52;;;;;;;35.15;24.33;;;;;;;;;;5037782;28;20053;-67
2024/03/29 01:26:18;;;;;;;34.78;24.30;;;;;;;;;;5045607;28;20437;-64
2024/03/29 01:28:45;;;;;;;37.47;24.55;;;;;;;;;;5032663;28;20084;-64
2024/03/29 01:31:11;;;;;;;42.65;26.50;;;;;;;;;;5043133;28;20032;-64
2024/03/29 01:33:39;;;;;;;38.92;27.27;;;;;;;;;;5040246;28;20488;-65
2024/03/29 01:36:05;;;;;;;39.40;27.98;;;;;;;;;;5036065;28;20025;-64
2024/03/29 01:38:31;;;;;;;40.67;27.60;;;;;;;;;;5046313;28;20070;-65
2024/03/29 01:40:57;;;;;;;43.38;29.30;;;;;;;;;;5035558;28;20021;-65
2024/03/29 01:43:23;;;;;;;41.20;28.95;;;;;;;;;;5042473;28;20024;-66
2024/03/29 01:45:51;;;;;;;45.92;30.23;;;;;;;;;;5042985;28;20029;-67
2024/03/29 01:48:18;;;;;;;49.22;32.03;;;;;;;;;;5034938;28;20033;-66
2024/03/29 01:50:45;;;;;;;46.78;32.10;;;;;;;;;;5046611;28;20021;-67
2024/03/29 01:53:11;;;;;;;48.40;33.25;;;;;;;;;;5037418;28;20029;-67
2024/03/29 01:55:37;;;;;;;47.75;32.90;;;;;;;;;;5040539;28;20428;-66
2024/03/29 01:58:03;;;;;;;52.35;34.35;;;;;;;;;;5045114;28;20017;-66
2024/03/29 02:00:31;;;;;;;49.30;33.80;;;;;;;;;;5033463;28;20426;-66
2024/03/29 02:02:57;;;;;;;51.05;35.40;;;;;;;;;;5046558;28;20491;-66
2024/03/29 02:05:23;;;;;;;53.45;36.50;;;;;;;;;;5044160;28;20021;-66
2024/03/29 02:07:49;;;;;;;54.88;37.45;;;;;;;;;;5048944;28;20043;-68
2024/03/29 02:10:16;;;;;;;59.80;39.63;;;;;;;;;;5056479;28;20031;-68
2024/03/29 02:12:42;;;;;;;54.15;36.90;;;;;;;;;;5043289;28;20029;-66
2024/03/29 02:15:08;;;;;;;53.08;37.90;;;;;;;;;;5058605;28;20076;-66
2024/03/29 02:17:34;;;;;;;59.10;39.33;;;;;;;;;;5050322;28;20067;-66
2024/03/29 02:20:00;;;;;;;56.03;38.75;;;;;;;;;;5026745;28;20014;-66
2024/03/29 02:22:27;;;;;;;54.03;37.70;;;;;;;;;;5045482;28;20070;-66
2024/03/29 02:24:54;;;;;;;56.00;37.83;;;;;;;;;;5034510;28;20024;-65
2024/03/29 02:27:21;;;;;;;77.50;41.63;;;;;;;;;;5042278;28;20029;-65
2024/03/29 02:29:47;;;;;;;59.33;40.95;;;;;;;;;;5041525;28;20036;-65
2024/03/29 02:32:13;;;;;;;58.70;39.88;;;;;;;;;;5034840;28;20017;-65
2024/03/29 02:34:39;;;;;;;55.83;38.92;;;;;;;;;;5045503;28;20035;-66
2024/03/29 02:37:06;;;;;;;64.82;42.03;;;;;;;;;;5036085;28;20075;-65
2024/03/29 02:39:32;;;;;;;66.97;42.72;;;;;;;;;;5039741;28;20632;-65
2024/03/29 02:41:58;;;;;;;83.20;50.90;;;;;;;;;;5010573;28;20032;-66
2024/03/29 02:44:24;;;;;;;103.45;64.13;;;;;;;;;;5044269;23;20046;-62
2024/03/29 02:46:50;;;;;;;129.88;85.78;;;;;;;;;;5028636;28;20060;-64
2024/03/29 02:49:16;;;;;;;128.20;86.65;;;;;;;;;;5027734;28;20049;-63
2024/03/29 02:51:42;;;;;;;133.50;91.32;;;;;;;;;;5029839;28;20703;-64
2024/03/29 02:54:08;;;;;;;141.45;94.25;;;;;;;;;;5028098;28;20018;-64
2024/03/29 02:56:33;;;;;;;147.40;97.65;;;;;;;;;;5029884;28;20366;-64
2024/03/29 02:58:59;;;;;;;143.32;94.28;;;;;;;;;;5029868;28;20025;-64
2024/03/29 03:01:25;;;;;;;152.43;94.70;;;;;;;;;;5029598;28;20481;-63
2024/03/29 03:03:51;;;;;;;143.23;94.20;;;;;;;;;;5029534;28;20025;-64
2024/03/29 03:06:18;;;;;;;148.23;95.10;;;;;;;;;;5029651;28;20499;-64
2024/03/29 03:11:42;;;;;;;143.80;98.75;;;;;;;;;;4995889;28;20049;-64
2024/03/29 03:14:08;;;;;;;144.20;97.68;;;;;;;;;;5029624;28;20121;-64
2024/03/29 03:16:34;;;;;;;141.18;102.25;;;;;;;;;;5029991;28;20033;-64
2024/03/29 03:19:00;;;;;;;142.68;97.25;;;;;;;;;;5029810;28;20469;-65
2024/03/29 03:21:26;;;;;;;140.65;98.93;;;;;;;;;;5029617;28;20064;-65
2024/03/29 03:23:52;;;;;;;138.10;94.88;;;;;;;;;;5029596;28;20120;-64
2024/03/29 03:26:18;;;;;;;145.02;96.78;;;;;;;;;;5029663;28;20092;-64
2024/03/29 03:28:44;;;;;;;135.13;93.88;;;;;;;;;;5029546;28;20025;-63
2024/03/29 03:31:10;;;;;;;144.18;98.75;;;;;;;;;;5029496;28;20075;-62
2024/03/29 03:33:36;;;;;;;134.77;92.85;;;;;;;;;;5029557;28;20465;-64
2024/03/29 03:36:02;;;;;;;135.82;94.30;;;;;;;;;;5030009;28;20075;-64
2024/03/29 03:38:28;;;;;;;144.40;99.55;;;;;;;;;;5029524;28;20476;-65
2024/03/29 03:40:54;;;;;;;142.32;96.65;;;;;;;;;;5029354;28;20052;-64
2024/03/29 03:43:20;;;;;;;133.20;93.57;;;;;;;;;;5029141;28;20449;-62
2024/03/29 03:45:47;;;;;;;137.25;92.88;;;;;;;;;;5029359;28;20033;-64
2024/03/29 03:48:14;;;;;;;141.05;92.63;;;;;;;;;;5029352;28;20469;-64
2024/03/29 03:50:41;;;;;;;130.43;92.50;;;;;;;;;;5011918;28;20074;-65
2024/03/29 03:53:07;;;;;;;123.85;86.03;;;;;;;;;;5033004;28;20035;-64
2024/03/29 03:55:37;;;;;;;126.05;88.05;;;;;;;;;;5032896;28;20025;-64
2024/03/29 03:58:03;;;;;;;133.27;93.07;;;;;;;;;;5032795;28;20045;-64
2024/03/29 04:00:29;;;;;;;127.57;88.07;;;;;;;;;;5032789;28;20392;-63
2024/03/29 04:02:56;;;;;;;123.40;86.50;;;;;;;;;;5032417;28;20085;-64
2024/03/29 04:05:22;;;;;;;124.43;89.13;;;;;;;;;;5032823;28;20166;-64
2024/03/29 04:07:48;;;;;;;122.75;88.05;;;;;;;;;;5032752;28;20026;-65
2024/03/29 04:10:15;;;;;;;122.65;87.50;;;;;;;;;;5032504;28;20449;-65
2024/03/29 04:12:41;;;;;;;119.10;84.00;;;;;;;;;;5032283;28;20057;-65
2024/03/29 04:15:07;;;;;;;121.65;84.70;;;;;;;;;;5032470;28;20101;-65
2024/03/29 04:17:33;;;;;;;123.35;85.50;;;;;;;;;;5032316;28;20025;-65
2024/03/29 04:19:59;;;;;;;117.85;83.80;;;;;;;;;;5032187;28;20381;-62
2024/03/29 04:22:28;;;;;;;119.32;83.55;;;;;;;;;;5031794;28;20148;-64
2024/03/29 04:24:54;;;;;;;114.85;80.65;;;;;;;;;;5031602;28;20477;-64
2024/03/29 04:27:20;;;;;;;112.43;79.90;;;;;;;;;;5031994;28;20631;-62
2024/03/29 04:29:46;;;;;;;113.03;78.68;;;;;;;;;;5031604;28;20037;-63
2024/03/29 04:32:12;;;;;;;117.35;83.03;;;;;;;;;;5031542;28;20127;-63
2024/03/29 04:34:38;;;;;;;110.95;76.65;;;;;;;;;;5031811;28;20117;-64
2024/03/29 04:37:04;;;;;;;113.40;79.78;;;;;;;;;;5031557;28;20401;-65
2024/03/29 04:39:30;;;;;;;112.78;78.68;;;;;;;;;;5031691;28;20013;-65
2024/03/29 04:41:56;;;;;;;111.10;75.78;;;;;;;;;;5031713;28;20481;-63
2024/03/29 04:44:26;;;;;;;108.15;77.95;;;;;;;;;;5031363;28;20037;-63
2024/03/29 04:46:52;;;;;;;107.50;76.05;;;;;;;;;;5031735;28;20025;-64
2024/03/29 04:49:30;;;;;;;108.65;76.13;;;;;;;;;;5031565;28;20018;-63
2024/03/29 04:51:56;;;;;;;105.10;72.53;;;;;;;;;;5031392;28;20026;-63
2024/03/29 04:54:22;;;;;;;99.43;72.00;;;;;;;;;;5031286;28;20095;-64
2024/03/29 04:56:48;;;;;;;101.22;70.88;;;;;;;;;;5031240;28;20473;-63
2024/03/29 04:59:16;;;;;;;103.45;72.25;;;;;;;;;;5031308;28;20100;-64
2024/03/29 05:01:44;;;;;;;101.60;71.97;;;;;;;;;;5030849;28;20177;-64
2024/03/29 05:04:10;;;;;;;106.35;73.47;;;;;;;;;;5030497;28;20038;-64
2024/03/29 05:06:36;;;;;;;103.15;72.35;;;;;;;;;;5031112;28;20021;-64
2024/03/29 05:09:02;;;;;;;101.85;71.85;;;;;;;;;;5031271;28;20023;-65
2024/03/29 05:11:28;;;;;;;99.05;68.80;;;;;;;;;;5030670;28;20022;-64
2024/03/29 05:13:54;;;;;;;97.95;69.18;;;;;;;;;;5030849;28;20021;-65
2024/03/29 05:16:21;;;;;;;94.43;66.13;;;;;;;;;;5030893;28;20370;-65
2024/03/29 05:18:47;;;;;;;95.07;65.90;;;;;;;;;;5012861;28;20022;-64
2024/03/29 05:21:13;;;;;;;91.47;65.53;;;;;;;;;;5030548;28;20100;-65
2024/03/29 05:23:39;;;;;;;95.45;64.28;;;;;;;;;;5030560;28;20129;-64
2024/03/29 05:26:06;;;;;;;95.38;63.83;;;;;;;;;;5030557;28;20421;-65
2024/03/29 05:28:32;;;;;;;94.10;65.07;;;;;;;;;;5030610;28;20492;-65
2024/03/29 05:31:09;;;;;;;90.93;64.28;;;;;;;;;;5030487;28;20099;-64
2024/03/29 05:33:37;;;;;;;96.35;63.38;;;;;;;;;;5028650;28;20503;-63
2024/03/29 05:36:04;;;;;;;90.57;62.58;;;;;;;;;;5029953;28;20017;-65
2024/03/29 05:38:30;;;;;;;92.30;63.17;;;;;;;;;;5030014;28;20118;-67
2024/03/29 05:40:56;;;;;;;87.82;61.42;;;;;;;;;;5025492;28;20017;-69
2024/03/29 05:43:22;;;;;;;88.00;58.55;;;;;;;;;;5030174;28;20021;-67
2024/03/29 05:45:52;;;;;;;86.85;59.28;;;;;;;;;;5030292;28;20045;-68
2024/03/29 05:48:22;;;;;;;88.25;59.60;;;;;;;;;;5030384;28;20021;-65
2024/03/29 05:50:48;;;;;;;93.55;59.42;;;;;;;;;;5029974;28;20036;-67
2024/03/29 05:53:14;;;;;;;77.97;55.50;;;;;;;;;;5030019;28;20104;-66
2024/03/29 05:55:40;;;;;;;79.80;55.53;;;;;;;;;;5030376;28;20030;-67
2024/03/29 05:58:06;;;;;;;81.88;55.03;;;;;;;;;;5030166;28;20448;-67
2024/03/29 06:00:35;;;;;;;75.18;51.97;;;;;;;;;;5030103;28;20017;-69
2024/03/29 06:03:05;;;;;;;68.35;48.38;;;;;;;;;;5029655;28;20018;-68
2024/03/29 06:05:31;;;;;;;73.32;50.30;;;;;;;;;;5030071;28;20017;-71
2024/03/29 06:07:57;;;;;;;67.88;48.08;;;;;;;;;;5029908;28;20537;-69
2024/03/29 06:10:23;;;;;;;67.72;46.80;;;;;;;;;;5029906;28;20026;-67
2024/03/29 06:12:49;;;;;;;63.33;46.05;;;;;;;;;;5029591;28;20501;-68
2024/03/29 06:17:59;;;;;;;63.55;42.88;;;;;;;;;;5029829;28;20095;-69
2024/03/29 06:20:25;;;;;;;60.72;43.90;;;;;;;;;;5029818;28;20041;-69
2024/03/29 06:22:51;;;;;;;60.75;43.00;;;;;;;;;;5029324;28;20064;-70
2024/03/29 06:25:17;;;;;;;61.15;40.67;;;;;;;;;;5028900;28;20029;-70
2024/03/29 06:27:47;;;;;;;60.63;40.60;;;;;;;;;;5029570;28;20408;-70
2024/03/29 06:30:13;;;;;;;56.10;38.53;;;;;;;;;;5011534;28;20500;-67
2024/03/29 06:32:39;;;;;;;56.05;38.20;;;;;;;;;;5029459;28;20040;-66
2024/03/29 06:35:05;;;;;;;51.08;37.67;;;;;;;;;;5029813;28;20021;-67
2024/03/29 06:37:32;;;;;;;51.38;35.95;;;;;;;;;;5029387;28;20035;-67
2024/03/29 06:39:58;;;;;;;48.58;35.00;;;;;;;;;;5029119;28;20083;-66
2024/03/29 06:42:24;;;;;;;52.92;37.55;;;;;;;;;;5029497;28;20017;-66
2024/03/29 06:44:50;;;;;;;49.00;34.55;;;;;;;;;;5029394;28;20026;-66
2024/03/29 06:47:16;;;;;;;47.25;33.47;;;;;;;;;;5029638;28;20025;-66
2024/03/29 06:49:42;;;;;;;44.88;32.80;;;;;;;;;;5029632;28;20075;-67
2024/03/29 06:52:08;;;;;;;43.35;30.15;;;;;;;;;;5030141;28;20104;-68
2024/03/29 06:54:34;;;;;;;45.72;31.23;;;;;;;;;;5029572;28;20029;-68
2024/03/29 06:57:00;;;;;;;42.38;30.38;;;;;;;;;;5029460;28;20022;-68
2024/03/29 06:59:27;;;;;;;40.55;29.13;;;;;;;;;;5029262;28;20029;-67
2024/03/29 07:01:54;;;;;;;43.22;29.83;;;;;;;;;;5011378;28;20021;-68
2024/03/29 07:04:21;;;;;;;39.90;29.13;;;;;;;;;;5029372;28;20051;-69
2024/03/29 07:06:53;;;;;;;36.83;26.80;;;;;;;;;;5029361;28;20074;-68
2024/03/29 07:09:20;;;;;;;36.20;26.08;;;;;;;;;;5029654;28;20025;-68
2024/03/29 07:11:49;;;;;;;38.13;26.50;;;;;;;;;;5029175;28;20044;-68
2024/03/29 07:14:16;;;;;;;35.47;25.52;;;;;;;;;;5029297;28;20440;-67
2024/03/29 07:16:42;;;;;;;34.90;24.42;;;;;;;;;;5027199;28;20021;-68
2024/03/29 07:19:08;;;;;;;34.72;24.27;;;;;;;;;;5029070;28;20053;-67
2024/03/29 07:21:34;;;;;;;32.97;23.60;;;;;;;;;;5028890;28;20029;-67
2024/03/29 07:24:00;;;;;;;32.30;23.25;;;;;;;;;;5029005;28;20018;-67
2024/03/29 07:26:26;;;;;;;32.20;21.50;;;;;;;;;;5030956;28;20037;-68
2024/03/29 07:28:52;;;;;;;32.58;21.85;;;;;;;;;;5032686;28;20072;-67
2024/03/29 07:31:18;;;;;;;31.55;21.95;;;;;;;;;;5032695;28;20026;-65
2024/03/29 07:33:44;;;;;;;28.73;21.20;;;;;;;;;;5032733;28;20037;-67
2024/03/29 07:36:10;;;;;;;29.30;19.75;;;;;;;;;;5032822;28;20080;-68
2024/03/29 07:38:38;;;;;;;29.17;19.67;;;;;;;;;;5034161;28;20101;-65
2024/03/29 07:41:06;;;;;;;27.60;19.50;;;;;;;;;;5034166;28;20025;-65
2024/03/29 07:43:52;;;;;;;27.25;19.17;;;;;;;;;;5033561;28;20112;-64
2024/03/29 07:46:18;;;;;;;34.33;22.00;;;;;;;;;;5034419;28;20097;-64
2024/03/29 07:48:44;;;;;;;32.83;23.08;;;;;;;;;;5034499;28;20109;-66
2024/03/29 07:51:10;;;;;;;30.65;21.88;;;;;;;;;;5033571;28;20417;-66
2024/03/29 07:53:36;;;;;;;32.63;20.77;;;;;;;;;;5031938;28;20045;-66
2024/03/29 07:56:02;;;;;;;29.40;19.08;;;;;;;;;;5032016;28;20492;-65
2024/03/29 07:58:28;;;;;;;31.20;22.17;;;;;;;;;;5032163;28;20117;-70
2024/03/29 08:00:54;;;;;;;38.30;26.40;;;;;;;;;;5031851;28;20013;-67
2024/03/29 08:03:20;;;;;;;39.00;27.88;;;;;;;;;;5031880;28;20020;-65
2024/03/29 08:06:04;;;;;;;40.58;27.15;;;;;;;;;;5031682;28;20700;-69
2024/03/29 08:08:30;;;;;;;36.08;23.90;;;;;;;;;;5033948;28;20021;-67
2024/03/29 08:10:56;;;;;;;38.42;24.38;;;;;;;;;;5015783;28;20191;-65
2024/03/29 08:13:23;;;;;;;43.47;27.10;;;;;;;;;;5033718;28;20108;-66
2024/03/29 08:15:49;;;;;;;44.05;26.48;;;;;;;;;;5032141;28;20030;-66
2024/03/29 08:18:15;;;;;;;47.53;28.33;;;;;;;;;;5033410;28;20028;-66
2024/03/29 08:20:40;;;;;;;39.63;25.30;;;;;;;;;;5031863;28;20025;-64
2024/03/29 08:23:06;;;;;;;41.58;28.17;;;;;;;;;;5033488;28;20025;-66
2024/03/29 08:25:32;;;;;;;49.53;27.45;;;;;;;;;;5033363;28;20505;-65
2024/03/29 08:27:58;;;;;;;42.13;27.73;;;;;;;;;;5033301;28;20041;-67
2024/03/29 08:30:25;;;;;;;42.50;27.38;;;;;;;;;;5033431;28;20026;-67
2024/03/29 08:32:52;;;;;;;41.28;28.25;;;;;;;;;;5033135;28;20669;-66
2024/03/29 08:35:19;;;;;;;40.28;26.77;;;;;;;;;;5033340;28;20024;-65
2024/03/29 08:37:45;;;;;;;39.13;27.02;;;;;;;;;;5031874;28;20082;-65
2024/03/29 08:40:12;;;;;;;37.83;26.45;;;;;;;;;;5032838;28;20057;-65
2024/03/29 08:42:39;;;;;;;39.35;26.88;;;;;;;;;;5032805;28;20029;-65
2024/03/29 08:45:07;;;;;;;41.22;25.92;;;;;;;;;;5033422;28;20064;-63
2024/03/29 08:47:33;;;;;;;35.22;24.52;;;;;;;;;;5032992;28;20025;-64
2024/03/29 08:49:59;;;;;;;37.17;24.48;;;;;;;;;;5033060;28;20029;-64
2024/03/29 08:52:26;;;;;;;37.70;25.90;;;;;;;;;;5033056;28;20032;-66
2024/03/29 08:54:52;;;;;;;32.83;23.20;;;;;;;;;;5031132;28;20030;-66
2024/03/29 08:57:18;;;;;;;37.63;22.27;;;;;;;;;;5033025;28;20033;-66
2024/03/29 08:59:44;;;;;;;33.90;22.90;;;;;;;;;;5033870;28;20172;-66
2024/03/29 09:02:10;;;;;;;33.58;22.80;;;;;;;;;;5032508;28;20025;-65
2024/03/29 09:04:36;;;;;;;32.75;22.55;;;;;;;;;;5032618;28;20022;-65
2024/03/29 09:07:03;;;;;;;33.38;23.20;;;;;;;;;;5031390;28;20009;-66
2024/03/29 09:09:29;;;;;;;30.35;21.33;;;;;;;;;;5032729;28;20013;-66
2024/03/29 09:11:56;;;;;;;31.88;20.98;;;;;;;;;;5032768;28;20023;-66
2024/03/29 09:14:22;;;;;;;29.95;21.08;;;;;;;;;;5032644;28;20022;-67
2024/03/29 09:16:48;;;;;;;29.92;20.85;;;;;;;;;;5032468;28;20026;-66
2024/03/29 09:19:14;;;;;;;29.02;19.25;;;;;;;;;;5032495;28;20104;-68
2024/03/29 09:21:40;;;;;;;36.80;21.13;;;;;;;;;;5032210;28;20373;-66
2024/03/29 09:24:06;;;;;;;34.80;20.58;;;;;;;;;;5032142;28;20023;-66
2024/03/29 09:26:33;;;;;;;29.08;20.33;;;;;;;;;;5032239;28;20022;-65
2024/03/29 09:28:59;;;;;;;25.02;18.25;;;;;;;;;;5027323;28;20049;-65
2024/03/29 09:31:25;;;;;;;32.83;18.75;;;;;;;;;;5010848;28;20394;-67
2024/03/29 09:33:57;;;;;;;30.20;19.33;;;;;;;;;;5011121;28;20022;-68
2024/03/29 09:36:23;;;;;;;27.40;18.63;;;;;;;;;;5011079;28;20568;-68
2024/03/29 09:38:50;;;;;;;28.33;17.65;;;;;;;;;;5010988;28;20117;-68
2024/03/29 09:41:17;;;;;;;31.20;17.98;;;;;;;;;;5010778;28;20014;-68
2024/03/29 09:43:46;;;;;;;33.40;18.58;;;;;;;;;;5011524;28;20457;-68
2024/03/29 09:46:13;;;;;;;46.35;18.92;;;;;;;;;;5012472;28;20585;-65
2024/03/29 09:48:39;;;;;;;34.83;17.88;;;;;;;;;;5012352;28;20060;-67
2024/03/29 09:51:06;;;;;;;29.55;17.58;;;;;;;;;;5012441;28;20053;-64
2024/03/29 09:53:35;;;;;;;23.10;15.82;;;;;;;;;;5012486;28;20105;-66
2024/03/29 09:56:02;;;;;;;28.83;17.08;;;;;;;;;;5012481;28;20061;-67
2024/03/29 09:58:28;;;;;;;27.90;15.98;;;;;;;;;;5012117;28;20022;-68
2024/03/29 10:00:55;;;;;;;24.83;15.07;;;;;;;;;;5012537;28;20025;-68
2024/03/29 10:03:28;;;;;;;22.58;15.15;;;;;;;;;;5012219;28;20083;-68
2024/03/29 10:05:55;;;;;;;26.52;15.00;;;;;;;;;;5012428;28;20022;-67
2024/03/29 10:08:21;;;;;;;29.70;15.10;;;;;;;;;;5012470;28;20034;-67
2024/03/29 10:10:47;;;;;;;27.42;14.43;;;;;;;;;;5012220;28;20639;-67
2024/03/29 10:13:13;;;;;;;25.83;13.77;;;;;;;;;;5012139;28;20048;-67
2024/03/29 10:15:43;;;;;;;34.10;14.70;;;;;;;;;;5012251;28;20033;-65
2024/03/29 10:18:10;;;;;;;23.88;13.23;;;;;;;;;;5012153;28;20049;-66
2024/03/29 10:20:36;;;;;;;22.70;12.65;;;;;;;;;;5012139;28;20101;-66
2024/03/29 10:23:03;;;;;;;21.85;12.30;;;;;;;;;;5021345;28;20050;-66
2024/03/29 10:25:33;;;;;;;23.15;12.48;;;;;;;;;;5031812;28;20026;-65
2024/03/29 10:28:01;;;;;;;21.23;12.25;;;;;;;;;;5029318;28;20116;-65
2024/03/29 10:30:28;;;;;;;20.60;12.05;;;;;;;;;;5031564;28;20032;-65
2024/03/29 10:32:55;;;;;;;17.40;11.38;;;;;;;;;;5031568;28;20462;-66
2024/03/29 10:35:21;;;;;;;19.40;11.18;;;;;;;;;;5031544;28;20049;-65
2024/03/29 10:37:47;;;;;;;20.13;11.07;;;;;;;;;;5030322;28;20076;-65
2024/03/29 10:40:15;;;;;;;18.15;11.25;;;;;;;;;;5031605;28;20025;-65
2024/03/29 10:42:42;;;;;;;16.92;10.95;;;;;;;;;;5031490;28;20093;-66
2024/03/29 10:45:08;;;;;;;19.02;10.80;;;;;;;;;;5031369;28;20030;-65
2024/03/29 10:47:35;;;;;;;18.15;10.55;;;;;;;;;;5031341;28;20036;-65
2024/03/29 10:50:01;;;;;;;15.57;10.05;;;;;;;;;;5030518;28;20033;-64
2024/03/29 10:52:27;;;;;;;14.75;9.95;;;;;;;;;;5031480;28;20036;-64
2024/03/29 10:54:56;;;;;;;29.02;11.63;;;;;;;;;;5030179;28;20156;-65
2024/03/29 10:57:25;;;;;;;22.13;11.10;;;;;;;;;;5031449;28;20063;-66
2024/03/29 10:59:54;;;;;;;21.63;13.10;;;;;;;;;;5031468;28;20014;-65
2024/03/29 11:02:31;;;;;;;26.88;13.85;;;;;;;;;;5032962;28;20477;-66
2024/03/29 11:05:00;;;;;;;25.48;13.23;;;;;;;;;;5035386;28;20041;-64
2024/03/29 11:07:26;;;;;;;23.83;13.70;;;;;;;;;;5035590;28;20025;-65
2024/03/29 11:09:57;;;;;;;28.73;13.93;;;;;;;;;;5035509;28;20045;-65
2024/03/29 11:12:23;;;;;;;26.13;13.93;;;;;;;;;;5035157;28;20030;-65
2024/03/29 11:14:57;;;;;;;23.00;13.57;;;;;;;;;;5035231;28;20101;-65
2024/03/29 11:17:23;;;;;;;29.27;14.85;;;;;;;;;;5035473;28;20029;-66
2024/03/29 11:19:49;;;;;;;24.30;14.25;;;;;;;;;;5035215;28;20092;-65
2024/03/29 11:22:16;;;;;;;25.67;13.38;;;;;;;;;;5034926;28;20033;-66
2024/03/29 11:24:41;;;;;;;27.42;14.77;;;;;;;;;;5034981;28;20021;-65
2024/03/29 11:27:11;;;;;;;28.55;14.15;;;;;;;;;;5033614;28;20444;-64
2024/03/29 11:29:41;;;;;;;27.70;14.23;;;;;;;;;;5034859;28;20032;-66
2024/03/29 11:32:07;;;;;;;26.25;14.38;;;;;;;;;;5033570;28;20025;-66
2024/03/29 11:34:33;;;;;;;27.27;13.32;;;;;;;;;;5034281;28;20022;-65
2024/03/29 11:37:16;;;;;;;26.40;13.52;;;;;;;;;;5034304;28;20160;-65
2024/03/29 11:39:47;;;;;;;25.67;13.98;;;;;;;;;;5034208;28;20440;-64
2024/03/29 11:42:13;;;;;;;36.20;18.15;;;;;;;;;;5034803;28;20021;-67
2024/03/29 11:44:39;;;;;;;40.25;21.42;;;;;;;;;;5034486;28;20040;-66
2024/03/29 11:47:06;;;;;;;33.30;16.85;;;;;;;;;;5034682;28;20421;-67
2024/03/29 11:49:33;;;;;;;36.30;17.23;;;;;;;;;;5034652;28;20095;-65
2024/03/29 11:52:05;;;;;;;31.73;17.02;;;;;;;;;;5034378;28;20397;-65
2024/03/29 11:54:38;;;;;;;28.05;15.07;;;;;;;;;;5034709;28;20075;-66
2024/03/29 11:57:04;;;;;;;32.42;15.93;;;;;;;;;;5034543;28;20104;-66
2024/03/29 11:59:30;;;;;;;33.80;16.80;;;;;;;;;;5034553;28;20103;-66
2024/03/29 12:01:57;;;;;;;48.28;24.17;;;;;;;;;;5034201;28;20049;-65
2024/03/29 12:04:23;;;;;;;88.63;41.67;;;;;;;;;;5034107;28;20481;-65
2024/03/29 12:06:50;;;;;;;95.47;45.88;;;;;;;;;;5034289;28;20108;-66
2024/03/29 12:09:16;;;;;;;96.00;46.10;;;;;;;;;;5034458;28;20693;-65
2024/03/29 12:11:45;;;;;;;92.88;45.65;;;;;;;;;;5033863;28;20112;-66
2024/03/29 12:14:14;;;;;;;85.72;41.50;;;;;;;;;;5034164;28;20436;-66
2024/03/29 12:16:46;;;;;;;81.47;40.15;;;;;;;;;;5034201;28;20025;-66
2024/03/29 12:19:24;;;;;;;78.45;39.35;;;;;;;;;;5033497;28;20029;-67
2024/03/29 12:21:51;;;;;;;85.32;38.22;;;;;;;;;;5033855;28;20040;-66
2024/03/29 12:24:17;;;;;;;86.43;39.08;;;;;;;;;;5033788;28;20021;-65
2024/03/29 12:26:43;;;;;;;88.18;40.95;;;;;;;;;;5034020;28;20051;-64
2024/03/29 12:29:09;;;;;;;114.20;42.40;;;;;;;;;;5033644;28;20033;-64
2024/03/29 12:31:37;;;;;;;87.25;40.53;;;;;;;;;;5033719;28;20124;-64
2024/03/29 12:34:04;;;;;;;83.60;39.83;;;;;;;;;;5033748;28;20022;-65
2024/03/29 12:36:33;;;;;;;83.63;39.55;;;;;;;;;;5033394;28;20025;-62
2024/03/29 12:39:02;;;;;;;82.78;38.75;;;;;;;;;;5032919;28;20030;-64
2024/03/29 12:41:29;;;;;;;81.13;39.00;;;;;;;;;;5032683;28;20041;-64
2024/03/29 12:43:56;;;;;;;74.97;38.13;;;;;;;;;;5033213;28;20033;-65
2024/03/29 12:46:22;;;;;;;75.95;35.42;;;;;;;;;;5033414;28;20048;-64
2024/03/29 12:48:48;;;;;;;77.00;36.92;;;;;;;;;;5033092;28;20488;-63
2024/03/29 12:51:19;;;;;;;76.18;36.05;;;;;;;;;;5033372;28;20028;-64
2024/03/29 12:53:45;;;;;;;81.53;37.85;;;;;;;;;;5033273;28;20425;-65
2024/03/29 12:56:11;;;;;;;75.53;35.47;;;;;;;;;;5033453;28;20507;-65
2024/03/29 12:58:37;;;;;;;72.20;33.72;;;;;;;;;;5033083;28;20029;-64
2024/03/29 13:01:05;;;;;;;70.07;34.95;;;;;;;;;;5033218;28;20096;-65
2024/03/29 13:03:31;;;;;;;67.35;35.15;;;;;;;;;;5033321;28;20025;-65
2024/03/29 13:05:57;;;;;;;66.82;34.03;;;;;;;;;;5033202;28;20045;-62
2024/03/29 13:08:23;;;;;;;71.47;33.25;;;;;;;;;;5033337;28;20033;-64
2024/03/29 13:10:49;;;;;;;71.38;32.33;;;;;;;;;;5033135;28;20032;-65
2024/03/29 13:13:15;;;;;;;70.75;32.40;;;;;;;;;;5032749;28;20033;-63
2024/03/29 13:15:42;;;;;;;66.97;31.52;;;;;;;;;;5033455;28;20018;-64
2024/03/29 13:18:08;;;;;;;67.85;31.23;;;;;;;;;;5033004;28;20512;-64
2024/03/29 13:20:43;;;;;;;64.60;30.70;;;;;;;;;;5033203;28;20053;-64
2024/03/29 13:23:10;;;;;;;70.95;31.17;;;;;;;;;;5032989;28;20026;-64
2024/03/29 13:25:36;;;;;;;62.35;31.00;;;;;;;;;;5032815;28;20052;-63
2024/03/29 13:28:02;;;;;;;72.63;29.20;;;;;;;;;;5032625;28;20029;-65
2024/03/29 13:30:29;;;;;;;62.97;28.42;;;;;;;;;;5033026;28;20029;-63
2024/03/29 13:32:55;;;;;;;59.08;27.48;;;;;;;;;;5032603;28;20083;-64
2024/03/29 13:35:21;;;;;;;57.80;28.63;;;;;;;;;;5032653;28;20100;-64
2024/03/29 13:37:48;;;;;;;56.75;27.33;;;;;;;;;;5032734;28;20021;-65
2024/03/29 13:40:21;;;;;;;44.97;24.58;;;;;;;;;;5031438;28;20378;-65
2024/03/29 13:42:48;;;;;;;51.30;25.58;;;;;;;;;;5031450;28;20022;-64
2024/03/29 13:45:14;;;;;;;43.80;23.38;;;;;;;;;;5031325;28;20041;-64
2024/03/29 13:47:41;;;;;;;53.00;25.23;;;;;;;;;;5031377;28;20021;-65
2024/03/29 13:50:08;;;;;;;39.75;20.85;;;;;;;;;;5031414;28;20029;-63
2024/03/29 13:52:34;;;;;;;40.78;22.25;;;;;;;;;;5031507;28;20029;-65
2024/03/29 13:55:01;;;;;;;41.50;22.08;;;;;;;;;;5031170;28;20056;-65
2024/03/29 13:57:27;;;;;;;42.10;21.83;;;;;;;;;;5031512;28;20030;-65
2024/03/29 13:59:53;;;;;;;39.20;20.88;;;;;;;;;;5013492;28;20045;-64
2024/03/29 14:02:19;;;;;;;43.60;20.92;;;;;;;;;;5031397;28;20052;-64
2024/03/29 14:04:46;;;;;;;38.05;20.10;;;;;;;;;;5031300;28;20461;-64
2024/03/29 14:07:13;;;;;;;37.20;19.75;;;;;;;;;;5031375;28;20112;-64
2024/03/29 14:09:39;;;;;;;38.03;19.75;;;;;;;;;;5031203;28;20029;-64
2024/03/29 14:12:06;;;;;;;40.83;18.65;;;;;;;;;;5031220;28;20025;-64
2024/03/29 14:14:32;;;;;;;35.72;18.92;;;;;;;;;;5031203;28;20087;-64
2024/03/29 14:16:58;;;;;;;37.40;19.00;;;;;;;;;;5031105;28;20419;-64
2024/03/29 14:19:26;;;;;;;35.35;18.05;;;;;;;;;;5030972;28;20091;-64